Terminal Aerodrome Forecast
Issued by NWS

Home | Current Version | Previous Version | Text Only | Print | Product List | Glossary On
Versions: 1 2 3 4 5 6 7 8 9 10 11 12 13 14 15 16 17 18
000
FTUS46 KMTR 202300
TAFSJC
TAF
KSJC 202340Z 2100/2124 30011KT P6SM SKC
     FM210800 VRB04KT P6SM BKN015
     FM211700 30005KT P6SM SCT015
     FM211900 30010KT P6SM SKC=

USA.gov is the U.S. government's official web portal to all federal, state and local government web resources and services.